sensor_id;sensor_type;location;lat;lon;timestamp;pressure;altitude;pressure_sealevel;temperature;humidity
66547;BME280;53400;50.364;14.874;2022-08-11T00:00:05;99446.06;;;17.08;57.05
66547;BME280;53400;50.364;14.874;2022-08-11T00:02:53;99441.41;;;16.98;57.21
66547;BME280;53400;50.364;14.874;2022-08-11T00:05:20;99444.66;;;16.95;57.46
66547;BME280;53400;50.364;14.874;2022-08-11T00:07:48;99448.16;;;16.90;57.63
66547;BME280;53400;50.364;14.874;2022-08-11T00:10:16;99447.59;;;16.88;57.51
66547;BME280;53400;50.364;14.874;2022-08-11T00:12:43;99447.34;;;16.90;57.69
66547;BME280;53400;50.364;14.874;2022-08-11T00:15:15;99444.91;;;16.88;58.13
66547;BME280;53400;50.364;14.874;2022-08-11T00:17:41;99453.56;;;16.85;57.65
66547;BME280;53400;50.364;14.874;2022-08-11T00:20:14;99453.31;;;16.87;57.82
66547;BME280;53400;50.364;14.874;2022-08-11T00:22:43;99453.84;;;16.84;58.25
66547;BME280;53400;50.364;14.874;2022-08-11T00:25:11;99454.63;;;16.84;58.08
66547;BME280;53400;50.364;14.874;2022-08-11T00:27:39;99446.44;;;16.69;58.89
66547;BME280;53400;50.364;14.874;2022-08-11T00:30:07;99439.09;;;16.59;58.92
66547;BME280;53400;50.364;14.874;2022-08-11T00:32:35;99446.63;;;16.52;59.18
66547;BME280;53400;50.364;14.874;2022-08-11T00:35:03;99451.81;;;16.59;58.27
66547;BME280;53400;50.364;14.874;2022-08-11T00:37:31;99451.22;;;16.51;59.00
66547;BME280;53400;50.364;14.874;2022-08-11T00:39:57;99447.16;;;16.49;58.04
66547;BME280;53400;50.364;14.874;2022-08-11T00:42:41;99446.06;;;16.45;58.24
66547;BME280;53400;50.364;14.874;2022-08-11T00:45:09;99444.00;;;16.67;58.04
66547;BME280;53400;50.364;14.874;2022-08-11T00:47:43;99447.47;;;16.52;58.98
66547;BME280;53400;50.364;14.874;2022-08-11T00:50:23;99445.22;;;16.39;59.65
66547;BME280;53400;50.364;14.874;2022-08-11T01:02:10;99449.94;;;16.12;60.41
66547;BME280;53400;50.364;14.874;2022-08-11T01:08:06;99449.25;;;15.89;61.11
66547;BME280;53400;50.364;14.874;2022-08-11T01:10:55;99446.44;;;15.74;61.43
66547;BME280;53400;50.364;14.874;2022-08-11T01:13:48;99452.00;;;15.62;62.61
66547;BME280;53400;50.364;14.874;2022-08-11T01:16:47;99453.59;;;15.63;62.57
66547;BME280;53400;50.364;14.874;2022-08-11T01:19:39;99452.00;;;15.62;62.32
66547;BME280;53400;50.364;14.874;2022-08-11T01:41:00;99447.13;;;15.05;63.86
66547;BME280;53400;50.364;14.874;2022-08-11T01:44:10;99449.22;;;14.98;64.06
66547;BME280;53400;50.364;14.874;2022-08-11T01:47:08;99450.84;;;14.99;63.11
66547;BME280;53400;50.364;14.874;2022-08-11T01:50:07;99446.06;;;15.06;64.14
66547;BME280;53400;50.364;14.874;2022-08-11T01:52:44;99447.19;;;15.10;63.59
66547;BME280;53400;50.364;14.874;2022-08-11T01:55:17;99434.47;;;15.05;63.84
66547;BME280;53400;50.364;14.874;2022-08-11T01:57:52;99435.84;;;15.08;63.81
66547;BME280;53400;50.364;14.874;2022-08-11T02:00:25;99439.78;;;15.00;64.09
66547;BME280;53400;50.364;14.874;2022-08-11T02:03:02;99437.47;;;15.09;63.84
66547;BME280;53400;50.364;14.874;2022-08-11T02:05:43;99435.47;;;14.99;64.48
66547;BME280;53400;50.364;14.874;2022-08-11T02:08:23;99432.91;;;14.87;64.61
66547;BME280;53400;50.364;14.874;2022-08-11T02:11:04;99428.16;;;14.95;64.10
66547;BME280;53400;50.364;14.874;2022-08-11T02:13:58;99431.91;;;14.94;64.56
66547;BME280;53400;50.364;14.874;2022-08-11T02:16:32;99436.56;;;14.98;63.29
66547;BME280;53400;50.364;14.874;2022-08-11T02:19:07;99428.25;;;15.05;64.11
66547;BME280;53400;50.364;14.874;2022-08-11T02:22:00;99430.94;;;15.05;63.67
66547;BME280;53400;50.364;14.874;2022-08-11T02:24:54;99435.69;;;14.93;63.91
66547;BME280;53400;50.364;14.874;2022-08-11T02:27:29;99422.13;;;14.87;64.13
66547;BME280;53400;50.364;14.874;2022-08-11T02:30:03;99426.72;;;14.87;64.38
66547;BME280;53400;50.364;14.874;2022-08-11T02:32:37;99436.00;;;14.74;64.70
66547;BME280;53400;50.364;14.874;2022-08-11T02:35:26;99429.75;;;14.68;65.26
66547;BME280;53400;50.364;14.874;2022-08-11T02:38:04;99428.75;;;14.53;65.45
66547;BME280;53400;50.364;14.874;2022-08-11T02:40:45;99427.13;;;14.52;65.67
66547;BME280;53400;50.364;14.874;2022-08-11T02:43:23;99421.56;;;14.41;66.07
66547;BME280;53400;50.364;14.874;2022-08-11T02:45:59;99422.34;;;14.37;65.73
66547;BME280;53400;50.364;14.874;2022-08-11T02:48:38;99420.53;;;14.42;65.66
66547;BME280;53400;50.364;14.874;2022-08-11T02:51:36;99419.94;;;14.18;66.84
66547;BME280;53400;50.364;14.874;2022-08-11T02:54:09;99416.84;;;14.10;67.43
66547;BME280;53400;50.364;14.874;2022-08-11T02:56:45;99416.69;;;13.99;68.07
66547;BME280;53400;50.364;14.874;2022-08-11T02:59:40;99419.25;;;13.89;68.70
66547;BME280;53400;50.364;14.874;2022-08-11T03:02:34;99416.69;;;13.99;68.46
66547;BME280;53400;50.364;14.874;2022-08-11T03:05:20;99415.75;;;13.89;68.70
66547;BME280;53400;50.364;14.874;2022-08-11T03:08:02;99420.63;;;13.92;68.45
66547;BME280;53400;50.364;14.874;2022-08-11T03:10:34;99428.94;;;13.90;68.74
66547;BME280;53400;50.364;14.874;2022-08-11T03:13:09;99424.31;;;13.86;68.47
66547;BME280;53400;50.364;14.874;2022-08-11T03:16:08;99429.78;;;13.91;69.08
66547;BME280;53400;50.364;14.874;2022-08-11T03:19:10;99427.69;;;13.76;69.06
66547;BME280;53400;50.364;14.874;2022-08-11T03:21:44;99427.91;;;13.74;69.77
66547;BME280;53400;50.364;14.874;2022-08-11T03:24:18;99432.41;;;13.86;69.21
66547;BME280;53400;50.364;14.874;2022-08-11T03:26:57;99438.41;;;13.93;69.09
66547;BME280;53400;50.364;14.874;2022-08-11T03:29:30;99431.72;;;13.95;68.97
66547;BME280;53400;50.364;14.874;2022-08-11T03:32:03;99425.38;;;13.85;69.50
66547;BME280;53400;50.364;14.874;2022-08-11T03:34:32;99437.19;;;13.84;70.05
66547;BME280;53400;50.364;14.874;2022-08-11T03:37:21;99436.53;;;13.93;69.80
66547;BME280;53400;50.364;14.874;2022-08-11T03:40:19;99428.13;;;13.90;69.73
66547;BME280;53400;50.364;14.874;2022-08-11T03:43:20;99434.94;;;13.75;70.04
66547;BME280;53400;50.364;14.874;2022-08-11T03:45:57;99427.50;;;13.83;69.79
66547;BME280;53400;50.364;14.874;2022-08-11T03:48:36;99426.44;;;13.84;68.75
66547;BME280;53400;50.364;14.874;2022-08-11T03:51:13;99429.28;;;13.77;69.11
66547;BME280;53400;50.364;14.874;2022-08-11T03:53:53;99425.88;;;13.82;68.77
66547;BME280;53400;50.364;14.874;2022-08-11T03:57:02;99425.94;;;13.87;68.96
66547;BME280;53400;50.364;14.874;2022-08-11T04:03:14;99427.31;;;14.06;68.24
66547;BME280;53400;50.364;14.874;2022-08-11T04:09:24;99419.78;;;14.30;67.35
66547;BME280;53400;50.364;14.874;2022-08-11T04:12:21;99421.25;;;14.55;65.95
66547;BME280;53400;50.364;14.874;2022-08-11T04:15:11;99412.56;;;14.75;65.48
66547;BME280;53400;50.364;14.874;2022-08-11T04:18:09;99409.53;;;14.93;64.05
66547;BME280;53400;50.364;14.874;2022-08-11T04:21:14;99412.44;;;15.13;63.57
66547;BME280;53400;50.364;14.874;2022-08-11T04:24:02;99421.22;;;15.31;63.67
66547;BME280;53400;50.364;14.874;2022-08-11T04:29:49;99420.06;;;15.86;61.36
66547;BME280;53400;50.364;14.874;2022-08-11T04:32:33;99415.00;;;16.00;60.54
66547;BME280;53400;50.364;14.874;2022-08-11T04:35:25;99414.41;;;16.35;59.34
66547;BME280;53400;50.364;14.874;2022-08-11T04:38:29;99413.28;;;16.26;59.33
66547;BME280;53400;50.364;14.874;2022-08-11T04:41:51;99408.03;;;16.72;59.05
66547;BME280;53400;50.364;14.874;2022-08-11T04:45:09;99411.97;;;17.27;56.76
66547;BME280;53400;50.364;14.874;2022-08-11T04:47:53;99421.19;;;17.41;55.96
66547;BME280;53400;50.364;14.874;2022-08-11T04:51:00;99413.34;;;17.81;55.84
66547;BME280;53400;50.364;14.874;2022-08-11T04:53:57;99407.09;;;17.85;54.75
66547;BME280;53400;50.364;14.874;2022-08-11T04:56:45;99416.28;;;18.05;54.30
66547;BME280;53400;50.364;14.874;2022-08-11T04:59:59;99422.72;;;18.99;52.97
66547;BME280;53400;50.364;14.874;2022-08-11T05:03:30;99419.50;;;19.32;52.45
66547;BME280;53400;50.364;14.874;2022-08-11T05:06:22;99417.41;;;19.23;51.38
66547;BME280;53400;50.364;14.874;2022-08-11T05:09:22;99430.75;;;19.15;51.60
66547;BME280;53400;50.364;14.874;2022-08-11T05:12:05;99424.03;;;18.47;53.48
66547;BME280;53400;50.364;14.874;2022-08-11T05:14:38;99431.16;;;18.13;54.38
66547;BME280;53400;50.364;14.874;2022-08-11T05:17:33;99420.09;;;17.73;54.82
66547;BME280;53400;50.364;14.874;2022-08-11T05:20:19;99426.06;;;17.75;55.23
66547;BME280;53400;50.364;14.874;2022-08-11T05:23:07;99422.53;;;17.70;54.89
66547;BME280;53400;50.364;14.874;2022-08-11T05:25:55;99426.25;;;18.20;54.46
66547;BME280;53400;50.364;14.874;2022-08-11T05:28:43;99429.56;;;18.11;54.06
66547;BME280;53400;50.364;14.874;2022-08-11T05:31:33;99436.63;;;18.83;52.38
66547;BME280;53400;50.364;14.874;2022-08-11T05:34:22;99438.78;;;18.91;52.06
66547;BME280;53400;50.364;14.874;2022-08-11T05:37:10;99427.13;;;18.85;52.26
66547;BME280;53400;50.364;14.874;2022-08-11T05:39:43;99431.50;;;19.25;51.69
66547;BME280;53400;50.364;14.874;2022-08-11T05:42:28;99430.31;;;19.42;50.98
66547;BME280;53400;50.364;14.874;2022-08-11T05:45:16;99436.56;;;19.77;49.86
66547;BME280;53400;50.364;14.874;2022-08-11T05:48:02;99432.34;;;20.19;49.35
66547;BME280;53400;50.364;14.874;2022-08-11T05:50:51;99431.69;;;20.27;49.86
66547;BME280;53400;50.364;14.874;2022-08-11T05:53:48;99436.38;;;21.31;47.44
66547;BME280;53400;50.364;14.874;2022-08-11T05:56:41;99432.03;;;21.49;45.67
66547;BME280;53400;50.364;14.874;2022-08-11T05:59:12;99434.84;;;21.58;45.55
66547;BME280;53400;50.364;14.874;2022-08-11T06:01:40;99433.75;;;21.91;46.89
66547;BME280;53400;50.364;14.874;2022-08-11T06:04:08;99439.59;;;22.59;44.60
66547;BME280;53400;50.364;14.874;2022-08-11T06:06:47;99436.63;;;22.83;43.53
66547;BME280;53400;50.364;14.874;2022-08-11T06:09:20;99442.59;;;22.16;45.82
66547;BME280;53400;50.364;14.874;2022-08-11T06:11:49;99446.75;;;22.55;43.43
66547;BME280;53400;50.364;14.874;2022-08-11T06:14:15;99444.13;;;22.77;44.29
66547;BME280;53400;50.364;14.874;2022-08-11T06:16:46;99445.16;;;23.76;42.79
66547;BME280;53400;50.364;14.874;2022-08-11T06:19:12;99447.63;;;24.18;41.14
66547;BME280;53400;50.364;14.874;2022-08-11T06:21:43;99446.53;;;24.59;40.37
66547;BME280;53400;50.364;14.874;2022-08-11T06:24:11;99449.78;;;24.69;40.22
66547;BME280;53400;50.364;14.874;2022-08-11T06:26:39;99451.31;;;25.02;39.13
66547;BME280;53400;50.364;14.874;2022-08-11T06:29:10;99449.88;;;25.30;39.02
66547;BME280;53400;50.364;14.874;2022-08-11T06:31:36;99453.59;;;25.60;38.53
66547;BME280;53400;50.364;14.874;2022-08-11T06:34:10;99454.69;;;25.94;37.81
66547;BME280;53400;50.364;14.874;2022-08-11T06:36:43;99445.88;;;26.18;37.50
66547;BME280;53400;50.364;14.874;2022-08-11T06:39:19;99444.59;;;26.16;37.84
66547;BME280;53400;50.364;14.874;2022-08-11T06:41:52;99445.44;;;26.07;38.04
66547;BME280;53400;50.364;14.874;2022-08-11T06:44:26;99447.72;;;24.75;39.65
66547;BME280;53400;50.364;14.874;2022-08-11T06:46:54;99456.66;;;25.15;37.89
66547;BME280;53400;50.364;14.874;2022-08-11T06:49:34;99452.78;;;24.19;39.98
66547;BME280;53400;50.364;14.874;2022-08-11T06:52:28;99445.78;;;24.36;40.56
66547;BME280;53400;50.364;14.874;2022-08-11T06:54:57;99454.69;;;24.99;39.03
66547;BME280;53400;50.364;14.874;2022-08-11T06:57:34;99449.66;;;24.75;37.15
66547;BME280;53400;50.364;14.874;2022-08-11T07:00:22;99444.38;;;25.65;38.25
66547;BME280;53400;50.364;14.874;2022-08-11T07:02:58;99447.03;;;26.17;37.45
66547;BME280;53400;50.364;14.874;2022-08-11T07:05:38;99447.09;;;25.74;37.36
66547;BME280;53400;50.364;14.874;2022-08-11T07:11:31;99441.41;;;26.05;36.52
66547;BME280;53400;50.364;14.874;2022-08-11T07:14:33;99449.00;;;26.46;36.06
66547;BME280;53400;50.364;14.874;2022-08-11T07:17:22;99445.00;;;26.73;35.32
66547;BME280;53400;50.364;14.874;2022-08-11T07:19:51;99442.38;;;26.77;35.35
66547;BME280;53400;50.364;14.874;2022-08-11T07:22:37;99443.44;;;26.64;35.60
66547;BME280;53400;50.364;14.874;2022-08-11T07:25:24;99439.31;;;26.02;35.13
66547;BME280;53400;50.364;14.874;2022-08-11T07:28:10;99448.69;;;26.48;34.86
66547;BME280;53400;50.364;14.874;2022-08-11T07:31:02;99441.84;;;24.51;37.70
66547;BME280;53400;50.364;14.874;2022-08-11T07:33:38;99428.47;;;24.58;35.93
66547;BME280;53400;50.364;14.874;2022-08-11T07:36:07;99439.44;;;24.58;36.16
66547;BME280;53400;50.364;14.874;2022-08-11T07:38:40;99434.13;;;23.45;39.02
66547;BME280;53400;50.364;14.874;2022-08-11T07:41:10;99428.06;;;23.26;40.00
66547;BME280;53400;50.364;14.874;2022-08-11T07:43:37;99437.44;;;24.41;38.56
66547;BME280;53400;50.364;14.874;2022-08-11T07:46:05;99438.50;;;24.22;40.51
66547;BME280;53400;50.364;14.874;2022-08-11T07:48:52;99431.56;;;23.04;44.08
66547;BME280;53400;50.364;14.874;2022-08-11T07:51:39;99444.41;;;23.85;40.97
66547;BME280;53400;50.364;14.874;2022-08-11T07:54:25;99437.44;;;23.78;41.13
66547;BME280;53400;50.364;14.874;2022-08-11T07:56:52;99435.13;;;24.65;39.76
66547;BME280;53400;50.364;14.874;2022-08-11T07:59:19;99435.69;;;24.45;38.78
66547;BME280;53400;50.364;14.874;2022-08-11T08:02:05;99430.84;;;23.79;39.94
66547;BME280;53400;50.364;14.874;2022-08-11T08:04:50;99435.91;;;23.27;41.14
66547;BME280;53400;50.364;14.874;2022-08-11T08:07:37;99429.22;;;24.41;39.12
66547;BME280;53400;50.364;14.874;2022-08-11T08:10:22;99424.88;;;23.55;40.12
66547;BME280;53400;50.364;14.874;2022-08-11T08:13:06;99424.84;;;24.40;39.56
66547;BME280;53400;50.364;14.874;2022-08-11T08:15:52;99418.56;;;23.99;40.17
66547;BME280;53400;50.364;14.874;2022-08-11T08:18:38;99424.38;;;25.04;38.70
66547;BME280;53400;50.364;14.874;2022-08-11T08:21:07;99429.03;;;25.03;38.11
66547;BME280;53400;50.364;14.874;2022-08-11T08:23:37;99416.88;;;24.52;39.50
66547;BME280;53400;50.364;14.874;2022-08-11T08:26:05;99424.06;;;25.31;39.07
66547;BME280;53400;50.364;14.874;2022-08-11T08:28:56;99423.25;;;24.96;38.49
66547;BME280;53400;50.364;14.874;2022-08-11T08:31:42;99420.91;;;24.15;39.74
66547;BME280;53400;50.364;14.874;2022-08-11T08:34:09;99414.69;;;25.06;38.24
66547;BME280;53400;50.364;14.874;2022-08-11T08:36:39;99417.13;;;25.51;37.63
66547;BME280;53400;50.364;14.874;2022-08-11T08:39:07;99412.03;;;23.78;40.33
66547;BME280;53400;50.364;14.874;2022-08-11T08:41:35;99413.94;;;24.09;41.33
66547;BME280;53400;50.364;14.874;2022-08-11T08:44:07;99413.41;;;24.29;39.04
66547;BME280;53400;50.364;14.874;2022-08-11T08:46:36;99411.06;;;23.83;40.63
66547;BME280;53400;50.364;14.874;2022-08-11T08:49:04;99408.63;;;23.50;41.97
66547;BME280;53400;50.364;14.874;2022-08-11T08:51:35;99405.63;;;23.38;42.01
66547;BME280;53400;50.364;14.874;2022-08-11T08:54:07;99404.22;;;24.34;39.50
66547;BME280;53400;50.364;14.874;2022-08-11T08:56:34;99407.19;;;24.06;39.24
66547;BME280;53400;50.364;14.874;2022-08-11T08:59:03;99410.84;;;23.25;41.05
66547;BME280;53400;50.364;14.874;2022-08-11T09:01:35;99403.25;;;23.45;40.51
66547;BME280;53400;50.364;14.874;2022-08-11T09:04:02;99408.78;;;24.07;39.97
66547;BME280;53400;50.364;14.874;2022-08-11T09:06:33;99409.66;;;24.73;38.29
66547;BME280;53400;50.364;14.874;2022-08-11T09:09:01;99409.41;;;23.95;37.80
66547;BME280;53400;50.364;14.874;2022-08-11T09:11:28;99390.47;;;24.08;36.87
66547;BME280;53400;50.364;14.874;2022-08-11T09:14:13;99395.72;;;24.35;36.04
66547;BME280;53400;50.364;14.874;2022-08-11T09:16:39;99390.28;;;24.13;37.92
66547;BME280;53400;50.364;14.874;2022-08-11T09:19:06;99397.38;;;23.74;37.64
66547;BME280;53400;50.364;14.874;2022-08-11T09:21:32;99395.13;;;23.53;36.11
66547;BME280;53400;50.364;14.874;2022-08-11T09:23:58;99391.81;;;23.43;37.18
66547;BME280;53400;50.364;14.874;2022-08-11T09:26:45;99380.16;;;23.28;36.18
66547;BME280;53400;50.364;14.874;2022-08-11T09:29:29;99390.31;;;23.81;34.76
66547;BME280;53400;50.364;14.874;2022-08-11T09:31:58;99382.75;;;23.56;35.81
66547;BME280;53400;50.364;14.874;2022-08-11T09:34:25;99388.97;;;22.89;36.83
66547;BME280;53400;50.364;14.874;2022-08-11T09:36:51;99385.63;;;23.28;36.44
66547;BME280;53400;50.364;14.874;2022-08-11T09:39:37;99379.50;;;22.73;36.72
66547;BME280;53400;50.364;14.874;2022-08-11T09:42:25;99381.22;;;23.41;36.70
66547;BME280;53400;50.364;14.874;2022-08-11T09:45:11;99383.63;;;23.43;36.19
66547;BME280;53400;50.364;14.874;2022-08-11T09:47:39;99372.59;;;23.25;37.15
66547;BME280;53400;50.364;14.874;2022-08-11T09:50:08;99373.16;;;23.67;36.89
66547;BME280;53400;50.364;14.874;2022-08-11T09:52:37;99394.34;;;24.15;35.45
66547;BME280;53400;50.364;14.874;2022-08-11T09:55:05;99366.59;;;23.46;35.35
66547;BME280;53400;50.364;14.874;2022-08-11T09:57:38;99376.50;;;23.55;36.46
66547;BME280;53400;50.364;14.874;2022-08-11T10:00:28;99363.53;;;23.16;36.10
66547;BME280;53400;50.364;14.874;2022-08-11T10:02:56;99359.34;;;23.19;36.02
66547;BME280;53400;50.364;14.874;2022-08-11T10:05:23;99356.34;;;23.51;34.01
66547;BME280;53400;50.364;14.874;2022-08-11T10:08:11;99354.56;;;24.09;33.27
66547;BME280;53400;50.364;14.874;2022-08-11T10:10:39;99357.97;;;24.15;32.10
66547;BME280;53400;50.364;14.874;2022-08-11T10:13:09;99354.34;;;23.97;31.09
66547;BME280;53400;50.364;14.874;2022-08-11T10:15:36;99346.22;;;23.74;32.36
66547;BME280;53400;50.364;14.874;2022-08-11T10:18:06;99353.63;;;24.14;32.87
66547;BME280;53400;50.364;14.874;2022-08-11T10:20:58;99349.13;;;24.18;32.07
66547;BME280;53400;50.364;14.874;2022-08-11T10:23:27;99346.22;;;24.14;31.50
66547;BME280;53400;50.364;14.874;2022-08-11T10:26:14;99342.31;;;24.64;32.62
66547;BME280;53400;50.364;14.874;2022-08-11T10:29:01;99347.31;;;24.53;31.73
66547;BME280;53400;50.364;14.874;2022-08-11T10:31:28;99348.78;;;24.19;32.04
66547;BME280;53400;50.364;14.874;2022-08-11T10:34:13;99338.88;;;24.41;32.51
66547;BME280;53400;50.364;14.874;2022-08-11T10:36:43;99343.41;;;24.45;33.54
66547;BME280;53400;50.364;14.874;2022-08-11T10:39:15;99337.66;;;24.99;32.21
66547;BME280;53400;50.364;14.874;2022-08-11T10:41:43;99341.13;;;25.60;30.46
66547;BME280;53400;50.364;14.874;2022-08-11T10:44:31;99344.56;;;24.62;32.01
66547;BME280;53400;50.364;14.874;2022-08-11T10:47:01;99344.44;;;25.19;31.58
66547;BME280;53400;50.364;14.874;2022-08-11T10:49:47;99341.03;;;25.13;30.96
66547;BME280;53400;50.364;14.874;2022-08-11T10:52:34;99353.59;;;24.80;30.67
66547;BME280;53400;50.364;14.874;2022-08-11T10:55:18;99339.75;;;25.02;31.02
66547;BME280;53400;50.364;14.874;2022-08-11T10:58:03;99343.94;;;25.00;31.30
66547;BME280;53400;50.364;14.874;2022-08-11T11:00:49;99339.09;;;24.88;31.07
66547;BME280;53400;50.364;14.874;2022-08-11T11:03:17;99335.06;;;24.51;31.83
66547;BME280;53400;50.364;14.874;2022-08-11T11:05:45;99333.81;;;25.17;31.00
66547;BME280;53400;50.364;14.874;2022-08-11T11:08:14;99337.75;;;25.55;31.15
66547;BME280;53400;50.364;14.874;2022-08-11T11:11:00;99339.25;;;24.91;31.97
66547;BME280;53400;50.364;14.874;2022-08-11T11:13:29;99332.50;;;24.98;31.51
66547;BME280;53400;50.364;14.874;2022-08-11T11:16:17;99332.81;;;24.44;32.95
66547;BME280;53400;50.364;14.874;2022-08-11T11:19:09;99336.19;;;24.10;33.29
66547;BME280;53400;50.364;14.874;2022-08-11T11:21:37;99332.31;;;24.42;33.80
66547;BME280;53400;50.364;14.874;2022-08-11T11:24:08;99332.81;;;24.04;31.97
66547;BME280;53400;50.364;14.874;2022-08-11T11:26:42;99343.84;;;24.30;33.04
66547;BME280;53400;50.364;14.874;2022-08-11T11:29:41;99327.88;;;24.23;33.03
66547;BME280;53400;50.364;14.874;2022-08-11T11:32:22;99319.91;;;24.70;31.53
66547;BME280;53400;50.364;14.874;2022-08-11T11:35:09;99320.38;;;25.07;31.71
66547;BME280;53400;50.364;14.874;2022-08-11T11:37:40;99316.69;;;25.85;31.79
66547;BME280;53400;50.364;14.874;2022-08-11T11:40:12;99317.84;;;24.93;31.74
66547;BME280;53400;50.364;14.874;2022-08-11T11:42:41;99311.69;;;25.05;32.21
66547;BME280;53400;50.364;14.874;2022-08-11T11:45:10;99315.91;;;24.85;31.32
66547;BME280;53400;50.364;14.874;2022-08-11T11:47:38;99318.91;;;25.45;31.24
66547;BME280;53400;50.364;14.874;2022-08-11T11:50:06;99313.16;;;25.11;31.58
66547;BME280;53400;50.364;14.874;2022-08-11T11:52:33;99305.09;;;25.71;30.97
66547;BME280;53400;50.364;14.874;2022-08-11T11:54:59;99309.28;;;25.77;29.87
66547;BME280;53400;50.364;14.874;2022-08-11T11:57:27;99295.25;;;25.23;30.88
66547;BME280;53400;50.364;14.874;2022-08-11T12:00:12;99302.38;;;25.15;31.24
66547;BME280;53400;50.364;14.874;2022-08-11T12:03:00;99303.91;;;25.42;31.03
66547;BME280;53400;50.364;14.874;2022-08-11T12:05:27;99295.09;;;25.75;30.25
66547;BME280;53400;50.364;14.874;2022-08-11T12:07:55;99300.38;;;25.80;30.25
66547;BME280;53400;50.364;14.874;2022-08-11T12:10:58;99303.47;;;24.44;32.10
66547;BME280;53400;50.364;14.874;2022-08-11T12:13:46;99295.84;;;24.24;33.04
66547;BME280;53400;50.364;14.874;2022-08-11T12:16:17;99291.09;;;24.90;32.55
66547;BME280;53400;50.364;14.874;2022-08-11T12:18:46;99287.03;;;25.05;31.32
66547;BME280;53400;50.364;14.874;2022-08-11T12:21:14;99284.50;;;25.56;30.47
66547;BME280;53400;50.364;14.874;2022-08-11T12:23:42;99280.22;;;25.29;31.03
66547;BME280;53400;50.364;14.874;2022-08-11T12:26:28;99283.97;;;25.24;30.42
66547;BME280;53400;50.364;14.874;2022-08-11T12:29:13;99268.34;;;24.99;32.04
66547;BME280;53400;50.364;14.874;2022-08-11T12:31:40;99272.97;;;25.33;31.11
66547;BME280;53400;50.364;14.874;2022-08-11T12:34:10;99256.81;;;25.40;30.35
66547;BME280;53400;50.364;14.874;2022-08-11T12:36:38;99260.44;;;25.61;30.69
66547;BME280;53400;50.364;14.874;2022-08-11T12:39:06;99254.63;;;26.01;30.05
66547;BME280;53400;50.364;14.874;2022-08-11T12:41:32;99260.75;;;25.13;30.35
66547;BME280;53400;50.364;14.874;2022-08-11T12:44:18;99257.41;;;24.72;31.90
66547;BME280;53400;50.364;14.874;2022-08-11T12:47:07;99249.03;;;24.69;31.95
66547;BME280;53400;50.364;14.874;2022-08-11T12:49:37;99259.13;;;25.12;32.28
66547;BME280;53400;50.364;14.874;2022-08-11T12:52:26;99240.63;;;24.83;31.81
66547;BME280;53400;50.364;14.874;2022-08-11T12:54:57;99241.63;;;24.61;31.49
66547;BME280;53400;50.364;14.874;2022-08-11T12:57:29;99244.50;;;24.82;31.71
66547;BME280;53400;50.364;14.874;2022-08-11T13:00:16;99245.94;;;25.05;30.82
66547;BME280;53400;50.364;14.874;2022-08-11T13:03:02;99240.50;;;25.44;31.06
66547;BME280;53400;50.364;14.874;2022-08-11T13:05:52;99243.13;;;25.31;30.96
66547;BME280;53400;50.364;14.874;2022-08-11T13:08:19;99228.03;;;25.63;30.76
66547;BME280;53400;50.364;14.874;2022-08-11T13:10:49;99229.84;;;25.89;31.48
66547;BME280;53400;50.364;14.874;2022-08-11T13:13:35;99221.16;;;24.76;31.82
66547;BME280;53400;50.364;14.874;2022-08-11T13:16:02;99217.91;;;25.00;31.70
66547;BME280;53400;50.364;14.874;2022-08-11T13:18:28;99221.94;;;25.49;31.95
66547;BME280;53400;50.364;14.874;2022-08-11T13:20:56;99216.56;;;25.23;30.66
66547;BME280;53400;50.364;14.874;2022-08-11T13:23:23;99214.38;;;24.82;31.31
66547;BME280;53400;50.364;14.874;2022-08-11T13:25:51;99234.38;;;24.73;31.93
66547;BME280;53400;50.364;14.874;2022-08-11T13:28:20;99211.50;;;24.43;31.64
66547;BME280;53400;50.364;14.874;2022-08-11T13:30:48;99214.41;;;24.64;30.85
66547;BME280;53400;50.364;14.874;2022-08-11T13:33:34;99213.22;;;24.91;30.84
66547;BME280;53400;50.364;14.874;2022-08-11T13:36:03;99211.34;;;25.39;30.10
66547;BME280;53400;50.364;14.874;2022-08-11T13:38:31;99204.78;;;25.99;28.94
66547;BME280;53400;50.364;14.874;2022-08-11T13:40:58;99205.97;;;26.11;28.71
66547;BME280;53400;50.364;14.874;2022-08-11T13:43:25;99211.31;;;26.07;29.78
66547;BME280;53400;50.364;14.874;2022-08-11T13:45:52;99206.66;;;25.39;30.45
66547;BME280;53400;50.364;14.874;2022-08-11T13:48:39;99205.81;;;24.83;31.02
66547;BME280;53400;50.364;14.874;2022-08-11T13:51:08;99201.50;;;24.73;31.23
66547;BME280;53400;50.364;14.874;2022-08-11T13:53:54;99191.97;;;24.80;30.82
66547;BME280;53400;50.364;14.874;2022-08-11T13:56:21;99192.91;;;25.01;31.47
66547;BME280;53400;50.364;14.874;2022-08-11T13:58:47;99194.41;;;25.37;30.57
66547;BME280;53400;50.364;14.874;2022-08-11T14:01:15;99187.06;;;25.58;30.11
66547;BME280;53400;50.364;14.874;2022-08-11T14:03:42;99175.25;;;25.67;29.91
66547;BME280;53400;50.364;14.874;2022-08-11T14:06:10;99184.03;;;25.51;30.27
66547;BME280;53400;50.364;14.874;2022-08-11T14:08:38;99183.16;;;25.30;29.85
66547;BME280;53400;50.364;14.874;2022-08-11T14:11:05;99180.50;;;25.51;30.10
66547;BME280;53400;50.364;14.874;2022-08-11T14:13:51;99180.81;;;26.08;29.65
66547;BME280;53400;50.364;14.874;2022-08-11T14:16:19;99181.88;;;26.37;29.24
66547;BME280;53400;50.364;14.874;2022-08-11T14:18:52;99178.66;;;25.63;29.67
66547;BME280;53400;50.364;14.874;2022-08-11T14:21:22;99172.16;;;25.38;30.95
66547;BME280;53400;50.364;14.874;2022-08-11T14:24:08;99176.00;;;24.99;30.49
66547;BME280;53400;50.364;14.874;2022-08-11T14:26:36;99174.91;;;24.83;31.30
66547;BME280;53400;50.364;14.874;2022-08-11T14:29:07;99176.06;;;24.64;31.34
66547;BME280;53400;50.364;14.874;2022-08-11T14:31:36;99178.63;;;24.69;31.80